createdAt,value
2022-11-01T00:00:32.170Z,33.87
2022-11-01T00:02:58.911Z,27.27
2022-11-01T00:05:25.639Z,30.53
2022-11-01T00:07:53.427Z,24.73
2022-11-01T00:10:20.199Z,33.27
2022-11-01T00:12:46.960Z,29.67
2022-11-01T00:15:15.112Z,32.93
2022-11-01T00:17:41.853Z,30.33
2022-11-01T00:20:09.767Z,29.13
2022-11-01T00:22:36.563Z,21.97
2022-11-01T00:25:03.850Z,18.97
2022-11-01T00:27:30.631Z,17.87
2022-11-01T00:29:57.399Z,24.20
2022-11-01T00:32:25.848Z,25.13
2022-11-01T00:34:52.612Z,34.40
2022-11-01T00:37:19.318Z,29.97
2022-11-01T00:39:46.076Z,23.90
2022-11-01T00:42:12.889Z,32.13
2022-11-01T00:44:39.715Z,29.57
2022-11-01T00:47:06.402Z,29.13
2022-11-01T00:49:34.502Z,24.07
2022-11-01T00:52:01.329Z,32.23
2022-11-01T00:54:28.103Z,30.40
2022-11-01T00:56:54.826Z,30.00
2022-11-01T00:59:21.621Z,27.00
2022-11-01T01:01:48.545Z,21.37
2022-11-01T01:04:15.388Z,20.53
2022-11-01T01:06:43.513Z,23.37
2022-11-01T01:09:10.893Z,34.63
2022-11-01T01:11:37.776Z,32.20
2022-11-01T01:14:04.583Z,18.87
2022-11-01T01:16:31.389Z,19.20
2022-11-01T01:18:58.639Z,21.47
2022-11-01T01:21:25.443Z,23.23
2022-11-01T01:23:53.577Z,25.00
2022-11-01T01:26:20.818Z,17.83
2022-11-01T01:28:47.602Z,17.60
2022-11-01T01:31:14.555Z,23.63
2022-11-01T01:33:41.471Z,20.97
2022-11-01T01:36:08.515Z,19.30
2022-11-01T01:38:35.318Z,27.10
2022-11-01T01:41:03.550Z,25.50
2022-11-01T01:43:40.972Z,23.20
2022-11-01T01:46:07.668Z,32.50
2022-11-01T01:48:34.539Z,22.23
2022-11-01T01:51:05.482Z,35.50
2022-11-01T01:53:35.253Z,25.70
2022-11-01T01:56:05.886Z,30.47
2022-11-01T01:58:37.258Z,27.53
2022-11-01T02:01:04.333Z,26.73
2022-11-01T02:03:33.581Z,27.90
2022-11-01T02:06:06.685Z,21.40
2022-11-01T02:08:35.320Z,21.43
2022-11-01T02:11:06.597Z,28.73
2022-11-01T02:13:33.788Z,28.90
2022-11-01T02:16:21.263Z,28.63
2022-11-01T02:18:56.066Z,26.00
2022-11-01T02:21:43.293Z,23.30
2022-11-01T02:24:54.784Z,32.07
2022-11-01T02:27:28.421Z,27.87
2022-11-01T02:30:14.510Z,28.27
2022-11-01T02:33:05.311Z,39.20
2022-11-01T02:35:48.124Z,30.80
2022-11-01T02:38:21.664Z,25.90
2022-11-01T02:40:54.450Z,19.20
2022-11-01T02:43:26.724Z,30.23
2022-11-01T02:45:53.581Z,35.93
2022-11-01T02:48:23.863Z,27.70
2022-11-01T02:50:55.074Z,25.43
2022-11-01T02:53:21.840Z,22.43
2022-11-01T02:55:51.445Z,23.17
2022-11-01T02:58:22.950Z,16.30
2022-11-01T03:00:50.121Z,26.90
2022-11-01T03:03:20.717Z,19.77
2022-11-01T03:06:01.387Z,20.90
2022-11-01T03:08:32.312Z,19.10
2022-11-01T03:11:06.071Z,26.77
2022-11-01T03:13:47.833Z,33.07
2022-11-01T03:16:20.350Z,34.47
2022-11-01T03:19:01.417Z,52.20
2022-11-01T03:21:35.611Z,29.77
2022-11-01T03:24:07.631Z,23.20
2022-11-01T03:26:37.246Z,14.63
2022-11-01T03:29:08.208Z,29.67
2022-11-01T03:31:37.179Z,43.30
2022-11-01T03:34:06.940Z,37.07
2022-11-01T03:36:39.062Z,23.80
2022-11-01T03:39:12.035Z,34.80
2022-11-01T03:41:44.426Z,44.10
2022-11-01T03:44:12.907Z,19.20
2022-11-01T03:46:40.467Z,13.33
2022-11-01T03:49:07.268Z,11.77
2022-11-01T03:51:35.358Z,20.93
2022-11-01T03:54:02.088Z,22.33
2022-11-01T03:56:28.883Z,12.87
2022-11-01T03:58:55.672Z,12.10
2022-11-01T04:01:22.532Z,38.10
2022-11-01T04:03:49.366Z,15.20
2022-11-01T04:06:16.161Z,18.67
2022-11-01T04:08:44.256Z,56.40
2022-11-01T04:11:11.066Z,20.60
2022-11-01T04:13:37.887Z,72.00
2022-11-01T04:16:06.052Z,28.40
2022-11-01T04:18:32.829Z,18.17
2022-11-01T04:21:02.599Z,29.03
2022-11-01T04:23:29.558Z,28.83
2022-11-01T04:25:57.796Z,13.57
2022-11-01T04:28:24.586Z,20.03
2022-11-01T04:30:51.606Z,17.53
2022-11-01T04:33:18.378Z,23.43
2022-11-01T04:35:45.309Z,28.00
2022-11-01T04:38:12.947Z,11.57
2022-11-01T04:40:40.384Z,12.67
2022-11-01T04:43:09.130Z,23.83
2022-11-01T04:45:36.029Z,18.30
2022-11-01T04:48:04.651Z,17.23
2022-11-01T04:50:32.418Z,15.77
2022-11-01T04:52:59.592Z,18.10
2022-11-01T04:55:26.680Z,15.00
2022-11-01T04:57:53.776Z,13.63
2022-11-01T05:00:21.941Z,15.93
2022-11-01T05:02:49.214Z,19.10
2022-11-01T05:05:16.515Z,23.77
2022-11-01T05:07:43.303Z,11.80
2022-11-01T05:10:11.268Z,20.53
2022-11-01T05:12:38.001Z,23.30
2022-11-01T05:15:06.220Z,29.33
2022-11-01T05:17:34.351Z,17.63
2022-11-01T05:20:01.150Z,20.00
2022-11-01T05:22:27.925Z,24.53
2022-11-01T05:24:54.633Z,20.73
2022-11-01T05:27:21.457Z,21.80
2022-11-01T05:29:48.221Z,18.37
2022-11-01T05:32:16.166Z,15.23
2022-11-01T05:34:44.338Z,17.80
2022-11-01T05:37:11.063Z,18.00
2022-11-01T05:39:37.819Z,14.97
2022-11-01T05:42:04.810Z,16.00
2022-11-01T05:44:31.660Z,16.03
2022-11-01T05:46:58.565Z,14.60
2022-11-01T05:49:25.385Z,20.17
2022-11-01T05:51:53.568Z,21.80
2022-11-01T05:54:20.298Z,17.83
2022-11-01T05:56:47.043Z,22.90
2022-11-01T05:59:13.815Z,20.37
2022-11-01T06:01:40.680Z,18.40
2022-11-01T06:04:07.765Z,19.00
2022-11-01T06:06:34.533Z,18.53
2022-11-01T06:09:02.669Z,18.17
2022-11-01T06:11:29.519Z,19.17
2022-11-01T06:13:57.635Z,21.10
2022-11-01T06:16:25.208Z,20.67
2022-11-01T06:18:52.408Z,19.40
2022-11-01T06:21:19.402Z,16.70
2022-11-01T06:23:47.085Z,17.17
2022-11-01T06:26:15.203Z,17.87
2022-11-01T06:28:41.907Z,18.80
2022-11-01T06:31:08.739Z,18.90
2022-11-01T06:33:35.540Z,22.93
2022-11-01T06:36:03.096Z,22.03
2022-11-01T06:38:30.241Z,25.30
2022-11-01T06:40:57.079Z,15.53
2022-11-01T06:43:25.377Z,19.10
2022-11-01T06:45:52.161Z,23.73
2022-11-01T06:48:18.914Z,23.50
2022-11-01T06:50:45.741Z,23.93
2022-11-01T06:53:12.481Z,24.03
2022-11-01T06:55:39.172Z,20.53
2022-11-01T06:58:06.382Z,18.23
2022-11-01T07:00:34.823Z,21.67
2022-11-01T07:03:03.150Z,25.03
2022-11-01T07:05:35.964Z,25.07
2022-11-01T07:08:05.909Z,19.63
2022-11-01T07:10:33.069Z,24.57
2022-11-01T07:13:00.117Z,24.17
2022-11-01T07:15:27.452Z,29.47
2022-11-01T07:18:00.077Z,22.10
2022-11-01T07:20:28.106Z,28.50
2022-11-01T07:22:58.799Z,22.40
2022-11-01T07:25:25.730Z,21.23
2022-11-01T07:27:52.664Z,31.93
2022-11-01T07:30:19.719Z,24.73
2022-11-01T07:32:46.496Z,20.00
2022-11-01T07:35:14.943Z,29.20
2022-11-01T07:37:41.728Z,29.83
2022-11-01T07:40:09.485Z,25.00
2022-11-01T07:42:41.790Z,21.37
2022-11-01T07:45:12.970Z,27.73
2022-11-01T07:47:40.084Z,22.27
2022-11-01T07:50:07.732Z,24.90
2022-11-01T07:52:35.815Z,25.40
2022-11-01T07:55:02.586Z,28.27
2022-11-01T07:57:29.316Z,27.17
2022-11-01T07:59:56.080Z,24.47
2022-11-01T08:02:23.238Z,24.20
2022-11-01T08:04:49.998Z,29.40
2022-11-01T08:07:16.815Z,24.20
2022-11-01T08:09:44.966Z,28.47
2022-11-01T08:12:11.790Z,31.90
2022-11-01T08:14:38.691Z,22.03
2022-11-01T08:17:05.453Z,29.10
2022-11-01T08:19:32.229Z,20.83
2022-11-01T08:21:59.103Z,28.70
2022-11-01T08:24:26.652Z,23.53
2022-11-01T08:26:54.870Z,19.50
2022-11-01T08:29:21.774Z,24.70
2022-11-01T08:31:48.512Z,25.10
2022-11-01T08:34:17.061Z,22.80
2022-11-01T08:36:44.221Z,25.10
2022-11-01T08:39:11.066Z,18.67
2022-11-01T08:41:37.917Z,19.43
2022-11-01T08:44:06.259Z,18.93
2022-11-01T08:46:33.011Z,21.10
2022-11-01T08:48:59.753Z,21.40
2022-11-01T08:51:27.200Z,20.90
2022-11-01T08:53:54.901Z,15.53
2022-11-01T08:56:21.648Z,19.70
2022-11-01T08:58:48.941Z,20.00
2022-11-01T09:01:17.376Z,15.40
2022-11-01T09:03:44.190Z,17.33
2022-11-01T09:06:10.975Z,20.30
2022-11-01T09:08:37.700Z,15.87
2022-11-01T09:11:04.717Z,17.03
2022-11-01T09:13:31.427Z,12.33
2022-11-01T09:16:01.480Z,21.50
2022-11-01T09:18:30.757Z,12.50
2022-11-01T09:20:57.503Z,11.37
2022-11-01T09:23:24.226Z,12.83
2022-11-01T09:25:50.956Z,17.80
2022-11-01T09:28:17.706Z,15.80
2022-11-01T09:30:49.664Z,13.20
2022-11-01T09:33:16.818Z,12.70
2022-11-01T09:35:52.199Z,12.37
2022-11-01T09:38:22.100Z,18.57
2022-11-01T09:41:00.478Z,13.27
2022-11-01T09:43:31.918Z,11.33
2022-11-01T09:46:00.616Z,10.77
2022-11-01T09:48:30.369Z,11.07
2022-11-01T09:51:00.860Z,11.80
2022-11-01T09:53:29.291Z,17.57
2022-11-01T09:56:01.326Z,12.33
2022-11-01T09:58:37.340Z,15.00
2022-11-01T10:01:15.807Z,13.93
2022-11-01T10:03:59.577Z,15.17
2022-11-01T10:06:31.449Z,15.37
2022-11-01T10:09:09.267Z,14.13
2022-11-01T10:11:47.591Z,10.03
2022-11-01T10:14:25.447Z,9.90
2022-11-01T10:17:03.553Z,19.83
2022-11-01T10:19:31.661Z,11.93
2022-11-01T10:22:06.320Z,15.13
2022-11-01T10:24:38.962Z,14.20
2022-11-01T10:27:15.201Z,11.40
2022-11-01T10:29:47.382Z,10.20
2022-11-01T10:32:25.972Z,10.63
2022-11-01T10:34:55.790Z,14.93
2022-11-01T10:37:29.792Z,9.30
2022-11-01T10:40:04.637Z,12.57
2022-11-01T10:42:35.056Z,8.33
2022-11-01T10:45:05.141Z,10.03
2022-11-01T10:47:32.474Z,10.93
2022-11-01T10:50:07.018Z,14.67
2022-11-01T10:52:45.337Z,11.80
2022-11-01T10:55:14.266Z,13.63
2022-11-01T10:57:44.291Z,12.57
2022-11-01T11:00:17.390Z,13.33
2022-11-01T11:02:48.629Z,12.27
2022-11-01T11:05:16.440Z,10.40
2022-11-01T11:07:45.518Z,9.20
2022-11-01T11:10:22.762Z,7.83
2022-11-01T11:12:53.470Z,11.13
2022-11-01T11:15:25.594Z,10.70
2022-11-01T11:17:57.319Z,7.10
2022-11-01T11:20:25.932Z,7.00
2022-11-01T11:22:54.334Z,10.00
2022-11-01T11:25:27.774Z,9.43
2022-11-01T11:27:54.575Z,9.53
2022-11-01T11:30:29.735Z,8.50
2022-11-01T11:32:56.639Z,9.10
2022-11-01T11:35:23.872Z,10.40
2022-11-01T11:37:55.627Z,7.07
2022-11-01T11:40:23.519Z,9.90
2022-11-01T11:42:51.877Z,7.60
2022-11-01T11:45:25.960Z,11.30
2022-11-01T11:47:53.233Z,7.90
2022-11-01T11:50:29.102Z,9.83
2022-11-01T11:53:00.472Z,7.43
2022-11-01T11:55:33.891Z,9.90
2022-11-01T11:58:01.960Z,9.80
2022-11-01T12:00:29.679Z,8.33
2022-11-01T12:02:56.556Z,6.93
2022-11-01T12:05:23.504Z,3.93
2022-11-01T12:07:51.879Z,6.30
2022-11-01T12:10:31.907Z,4.63
2022-11-01T12:12:59.324Z,12.07
2022-11-01T12:15:28.468Z,7.83
2022-11-01T12:17:55.825Z,11.30
2022-11-01T12:20:23.745Z,7.30
2022-11-01T12:22:54.612Z,4.17
2022-11-01T12:25:24.196Z,8.20
2022-11-01T12:28:02.848Z,6.40
2022-11-01T12:30:33.451Z,2.90
2022-11-01T12:33:03.650Z,8.90
2022-11-01T12:35:34.370Z,6.00
2022-11-01T12:38:18.570Z,7.80
2022-11-01T12:40:49.001Z,6.10
2022-11-01T12:43:22.511Z,7.90
2022-11-01T12:45:53.160Z,5.90
2022-11-01T12:48:25.511Z,6.57
2022-11-01T12:50:56.740Z,7.93
2022-11-01T12:53:29.221Z,6.17
2022-11-01T12:55:57.993Z,6.10
2022-11-01T12:58:28.922Z,4.87
2022-11-01T13:01:23.690Z,4.70
2022-11-01T13:04:00.156Z,7.13
2022-11-01T13:06:52.879Z,5.20
2022-11-01T13:09:26.459Z,3.47
2022-11-01T13:11:59.461Z,5.67
2022-11-01T13:14:46.183Z,7.80
2022-11-01T13:17:32.108Z,4.97
2022-11-01T13:20:09.970Z,8.43
2022-11-01T13:22:46.777Z,6.07
2022-11-01T13:25:21.242Z,8.07
2022-11-01T13:27:55.409Z,9.37
2022-11-01T13:30:24.048Z,5.37
2022-11-01T13:32:58.804Z,4.00
2022-11-01T13:35:42.679Z,2.53
2022-11-01T13:38:20.898Z,6.07
2022-11-01T13:40:55.867Z,7.50
2022-11-01T13:43:27.130Z,3.47
2022-11-01T13:46:30.030Z,4.50
2022-11-01T13:49:29.381Z,3.30
2022-11-01T13:52:00.481Z,3.23
2022-11-01T13:54:33.286Z,4.07
2022-11-01T13:57:09.047Z,4.13
2022-11-01T13:59:45.019Z,2.80
2022-11-01T14:02:41.943Z,3.67
2022-11-01T14:05:11.986Z,3.37
2022-11-01T14:07:59.223Z,4.20
2022-11-01T14:10:45.792Z,6.40
2022-11-01T14:13:16.135Z,4.73
2022-11-01T14:16:02.210Z,3.47
2022-11-01T14:18:50.462Z,4.10
2022-11-01T14:21:29.093Z,3.37
2022-11-01T14:24:05.550Z,4.50
2022-11-01T14:26:48.362Z,6.67
2022-11-01T14:29:15.479Z,3.73
2022-11-01T14:31:45.868Z,5.97
2022-11-01T14:34:24.307Z,5.73
2022-11-01T14:36:57.534Z,9.20
2022-11-01T14:39:31.594Z,2.97
2022-11-01T14:42:01.294Z,5.80
2022-11-01T14:44:31.773Z,3.03
2022-11-01T14:47:01.468Z,5.47
2022-11-01T14:49:33.648Z,6.83
2022-11-01T14:52:06.641Z,4.33
2022-11-01T14:54:40.941Z,4.10
2022-11-01T14:57:20.886Z,4.80
2022-11-01T14:59:47.702Z,4.90
2022-11-01T15:02:14.677Z,2.63
2022-11-01T15:04:43.877Z,2.90
2022-11-01T15:07:19.781Z,2.83
2022-11-01T15:09:56.036Z,2.73
2022-11-01T15:12:23.916Z,4.20
2022-11-01T15:14:51.537Z,5.50
2022-11-01T15:17:21.333Z,7.73
2022-11-01T15:19:49.880Z,12.43
2022-11-01T15:22:19.685Z,2.90
2022-11-01T15:24:50.489Z,2.60
2022-11-01T15:27:19.851Z,3.23
2022-11-01T15:29:47.373Z,5.07
2022-11-01T15:32:22.946Z,4.23
2022-11-01T15:34:52.441Z,10.30
2022-11-01T15:37:22.641Z,18.43
2022-11-01T15:39:50.021Z,5.23
2022-11-01T15:42:20.018Z,6.80
2022-11-01T15:44:46.719Z,4.57
2022-11-01T15:47:17.488Z,4.03
2022-11-01T15:49:49.028Z,5.63
2022-11-01T15:52:18.504Z,9.63
2022-11-01T15:54:52.401Z,10.63
2022-11-01T15:57:22.504Z,4.10
2022-11-01T15:59:55.707Z,3.43
2022-11-01T16:02:28.699Z,3.40
2022-11-01T16:04:56.592Z,2.50
2022-11-01T16:07:25.068Z,6.90
2022-11-01T16:09:56.985Z,6.27
2022-11-01T16:12:26.556Z,4.83
2022-11-01T16:14:55.988Z,2.40
2022-11-01T16:17:25.435Z,3.50
2022-11-01T16:19:52.632Z,3.83
2022-11-01T16:22:28.726Z,7.70
2022-11-01T16:25:16.421Z,3.50
2022-11-01T16:27:54.791Z,3.43
2022-11-01T16:30:43.236Z,4.00
2022-11-01T16:33:20.576Z,7.30
2022-11-01T16:35:48.868Z,3.40
2022-11-01T16:38:22.407Z,4.93
2022-11-01T16:40:52.569Z,3.87
2022-11-01T16:43:19.381Z,6.23
2022-11-01T16:45:46.203Z,7.90
2022-11-01T16:48:25.408Z,11.83
2022-11-01T16:50:53.218Z,5.00
2022-11-01T16:53:20.550Z,5.70
2022-11-01T16:55:47.805Z,4.30
2022-11-01T16:58:17.742Z,10.73
2022-11-01T17:00:52.282Z,4.23
2022-11-01T17:03:19.412Z,5.77
2022-11-01T17:05:46.416Z,5.87
2022-11-01T17:08:13.207Z,8.33
2022-11-01T17:10:40.106Z,7.70
2022-11-01T17:13:06.823Z,9.73
2022-11-01T17:15:39.776Z,6.83
2022-11-01T17:18:09.717Z,6.67
2022-11-01T17:20:38.248Z,12.80
2022-11-01T17:23:04.952Z,7.00
2022-11-01T17:25:31.716Z,7.27
2022-11-01T17:27:58.473Z,6.30
2022-11-01T17:30:25.352Z,8.97
2022-11-01T17:32:53.447Z,2.90
2022-11-01T17:35:22.837Z,7.27
2022-11-01T17:37:52.612Z,5.00
2022-11-01T17:40:21.662Z,5.27
2022-11-01T17:42:48.767Z,8.70
2022-11-01T17:45:15.689Z,6.67
2022-11-01T17:47:44.315Z,4.87
2022-11-01T17:50:14.100Z,6.33
2022-11-01T17:52:41.056Z,8.27
2022-11-01T17:55:09.151Z,4.07
2022-11-01T17:57:35.996Z,4.37
2022-11-01T18:00:03.759Z,6.53
2022-11-01T18:02:32.072Z,4.67
2022-11-01T18:04:59.006Z,5.10
2022-11-01T18:07:31.896Z,4.17
2022-11-01T18:09:59.174Z,3.80
2022-11-01T18:12:37.239Z,5.60
2022-11-01T18:15:16.431Z,7.60
2022-11-01T18:17:54.098Z,5.67
2022-11-01T18:20:29.722Z,5.47
2022-11-01T18:23:03.356Z,6.50
2022-11-01T18:25:36.208Z,4.97
2022-11-01T18:28:11.256Z,5.50
2022-11-01T18:30:38.019Z,4.23
2022-11-01T18:33:10.076Z,6.00
2022-11-01T18:35:41.132Z,6.40
2022-11-01T18:38:13.909Z,11.50
2022-11-01T18:40:53.791Z,6.13
2022-11-01T18:43:20.808Z,5.27
2022-11-01T18:46:18.776Z,8.10
2022-11-01T18:48:34.398Z,6.37
2022-11-01T18:51:05.000Z,6.57
2022-11-01T18:53:33.905Z,9.80
2022-11-01T18:56:18.446Z,9.43
2022-11-01T18:58:45.403Z,9.37
2022-11-01T19:01:15.844Z,10.00
2022-11-01T19:03:42.768Z,12.60
2022-11-01T19:06:17.734Z,10.80
2022-11-01T19:08:51.368Z,14.30
2022-11-01T19:11:18.138Z,13.90
2022-11-01T19:13:45.922Z,12.40
2022-11-01T19:16:12.884Z,14.23
2022-11-01T19:18:43.205Z,10.60
2022-11-01T19:21:15.672Z,12.83
2022-11-01T19:23:44.327Z,14.93
2022-11-01T19:26:20.467Z,20.00
2022-11-01T19:28:49.595Z,15.53
2022-11-01T19:31:24.826Z,16.10
2022-11-01T19:33:53.488Z,11.80
2022-11-01T19:36:21.616Z,16.60
2022-11-01T19:38:49.057Z,10.13
2022-11-01T19:41:20.193Z,17.20
2022-11-01T19:43:46.940Z,11.80
2022-11-01T19:46:16.606Z,15.67
2022-11-01T19:48:43.503Z,10.83
2022-11-01T19:51:16.675Z,8.93
2022-11-01T19:53:43.525Z,9.77
2022-11-01T19:56:14.166Z,19.37
2022-11-01T19:58:44.133Z,9.40
2022-11-01T20:01:42.061Z,10.10
2022-11-01T20:04:24.457Z,8.63
2022-11-01T20:06:56.097Z,5.90
2022-11-01T20:09:24.824Z,6.73
2022-11-01T20:11:52.043Z,9.60
2022-11-01T20:14:20.322Z,8.00
2022-11-01T20:16:47.267Z,7.50
2022-11-01T20:19:17.484Z,6.23
2022-11-01T20:21:45.069Z,6.93
2022-11-01T20:24:11.961Z,8.20
2022-11-01T20:26:39.269Z,9.73
2022-11-01T20:29:05.971Z,8.63
2022-11-01T20:31:34.072Z,9.27
2022-11-01T20:34:00.831Z,12.47
2022-11-01T20:36:27.981Z,8.97
2022-11-01T20:38:54.762Z,7.30
2022-11-01T20:41:21.822Z,7.63
2022-11-01T20:43:49.052Z,8.63
2022-11-01T20:46:15.869Z,9.30
2022-11-01T20:48:44.472Z,10.80
2022-11-01T20:51:11.279Z,12.03
2022-11-01T20:53:37.997Z,7.57
2022-11-01T20:56:05.299Z,7.00
2022-11-01T20:58:32.270Z,9.03
2022-11-01T21:00:59.028Z,7.80
2022-11-01T21:03:27.714Z,7.03
2022-11-01T21:05:55.857Z,8.60
2022-11-01T21:08:24.674Z,6.83
2022-11-01T21:10:53.940Z,5.33
2022-11-01T21:13:25.521Z,5.23
2022-11-01T21:15:53.365Z,11.00
2022-11-01T21:18:33.040Z,6.53
2022-11-01T21:21:17.065Z,10.33
2022-11-01T21:23:44.464Z,5.10
2022-11-01T21:26:16.169Z,5.13
2022-11-01T21:28:46.318Z,6.20
2022-11-01T21:31:28.159Z,6.60
2022-11-01T21:33:57.363Z,7.77
2022-11-01T21:36:33.185Z,5.33
2022-11-01T21:39:01.195Z,4.43
2022-11-01T21:41:32.833Z,6.33
2022-11-01T21:44:14.412Z,6.47
2022-11-01T21:46:47.550Z,11.30
2022-11-01T21:49:24.548Z,8.87
2022-11-01T21:51:53.389Z,4.07
2022-11-01T21:54:20.243Z,5.00
2022-11-01T21:56:46.943Z,3.33
2022-11-01T21:59:13.935Z,5.40
2022-11-01T22:01:43.163Z,5.37
2022-11-01T22:04:09.994Z,3.43
2022-11-01T22:06:36.814Z,4.77
2022-11-01T22:09:05.772Z,2.63
2022-11-01T22:11:32.859Z,4.83
2022-11-01T22:13:59.657Z,2.83
2022-11-01T22:16:26.919Z,2.53
2022-11-01T22:18:53.771Z,3.23
2022-11-01T22:21:20.535Z,8.00
2022-11-01T22:23:47.318Z,5.30
2022-11-01T22:26:15.510Z,7.23
2022-11-01T22:28:42.479Z,1.97
2022-11-01T22:31:09.332Z,3.33
2022-11-01T22:33:36.076Z,5.90
2022-11-01T22:36:03.346Z,3.83
2022-11-01T22:38:34.812Z,3.93
2022-11-01T22:41:10.773Z,3.13
2022-11-01T22:43:41.225Z,2.60
2022-11-01T22:46:20.625Z,2.73
2022-11-01T22:48:48.561Z,5.63
2022-11-01T22:51:24.737Z,2.10
2022-11-01T22:53:53.938Z,8.57
2022-11-01T22:56:21.151Z,5.70
2022-11-01T22:58:50.923Z,3.00
2022-11-01T23:01:25.816Z,4.90
2022-11-01T23:03:57.532Z,6.33
2022-11-01T23:06:32.186Z,2.13
2022-11-01T23:09:09.342Z,3.90
2022-11-01T23:11:36.191Z,7.80
2022-11-01T23:14:12.417Z,3.27
2022-11-01T23:16:43.846Z,3.50
2022-11-01T23:19:13.241Z,2.23
2022-11-01T23:21:40.180Z,4.20
2022-11-01T23:24:07.768Z,3.70
2022-11-01T23:26:34.768Z,5.30
2022-11-01T23:29:01.892Z,4.50
2022-11-01T23:31:30.113Z,4.30
2022-11-01T23:33:56.867Z,3.57
2022-11-01T23:36:26.759Z,9.57
2022-11-01T23:38:56.681Z,4.63
2022-11-01T23:41:27.096Z,3.17
2022-11-01T23:43:56.732Z,3.50
2022-11-01T23:46:25.086Z,2.70
2022-11-01T23:48:59.854Z,2.77
2022-11-01T23:51:28.083Z,2.10
2022-11-01T23:53:55.951Z,6.53
2022-11-01T23:56:23.381Z,6.17
2022-11-01T23:58:54.968Z,3.90
